Iron Springs, Canada
Current Conditions -  °F | °C
As of 11:00 PM on Friday 28 Nov 2014 (Local Time) from CYQL Reporting Station
Light Snow Light Snow  
Wind Chill: -26°   Ceiling: 1000
Heat Index: -4°   Visibility: 0.75mi
Dew Point: -9°   Wind: 17mph
Humidity: 78%   Direction: 320°NW
Pressure: 29.74"   Gusts: NA
Location:  49.93°N, 112.69°W
Report Text: CYQL 290600Z AUTO 32015KT 3/4SM -SN VV010 M20/M23 A2974 RMK PCPN 0.9MM PAST HR SLP157
Loading
Personal Weather Stations






























Interactive Weather Map New forecast layout! Learn more

10-Day Weather Forecast

Advertisements
Track Severe Weather on mobile